Time;durP1;ratioP1;P1;durP2;ratioP2;P2;SDS_P1;SDS_P2;PMS_P1;PMS_P2;Temp;Humidity;BMP_temperature;BMP_pressure;BME280_temperature;BME280_humidity;BME280_pressure;Samples;Min_cycle;Max_cycle;Signal;HPM_P1;HPM_P2
2023/09/11 10:57:43;;;;;;;7.30;3.80;;;;;;;33.87;27.14;101144.10;104549;1280;71556;-88
2023/09/11 11:00:11;;;;;;;5.80;3.60;;;;;;;33.77;26.99;101141.61;105507;1268;64386;-89
2023/09/11 11:02:41;;;;;;;8.10;3.50;;;;;;;33.60;26.93;101142.49;106012;1258;73826;-89
2023/09/11 11:05:15;;;;;;;4.20;3.30;;;;;;;33.52;27.10;101135.83;106028;1263;60319;-89
2023/09/11 11:07:48;;;;;;;4.30;3.40;;;;;;;33.47;27.21;101137.29;106110;1257;59854;-91
2023/09/11 11:10:23;;;;;;;5.50;3.80;;;;;;;33.28;27.50;101132.69;106250;1256;72803;-88
2023/09/11 11:13:09;;;;;;;3.40;3.10;;;;;;;33.23;28.12;101131.05;105736;1257;62535;-89
2023/09/11 11:15:37;;;;;;;3.50;3.20;;;;;;;33.30;28.13;101131.56;105708;1260;71267;-89
2023/09/11 11:18:16;;;;;;;4.40;3.40;;;;;;;33.30;27.41;101127.27;106149;1257;61209;-89
2023/09/11 11:21:15;;;;;;;3.70;3.40;;;;;;;33.21;27.04;101129.09;105709;1257;60122;-91
2023/09/11 11:23:55;;;;;;;5.40;3.70;;;;;;;32.84;27.61;101121.44;105331;1263;72713;-90
2023/09/11 11:26:25;;;;;;;6.70;3.80;;;;;;;32.50;28.26;101120.42;105430;1267;63085;-90
2023/09/11 11:28:53;;;;;;;4.40;3.70;;;;;;;32.33;28.68;101116.05;105444;1269;73039;-89
2023/09/11 11:31:21;;;;;;;4.70;4.20;;;;;;;32.21;28.82;101115.86;105519;1264;60076;-90
2023/09/11 11:33:50;;;;;;;5.00;3.80;;;;;;;32.19;28.70;101115.17;105631;1263;60271;-88
2023/09/11 11:36:18;;;;;;;5.30;3.90;;;;;;;32.19;28.81;101111.83;105389;1265;71707;-87
2023/09/11 11:38:46;;;;;;;5.10;4.10;;;;;;;32.21;28.75;101110.48;105815;1263;62201;-89
2023/09/11 11:41:13;;;;;;;3.80;3.30;;;;;;;32.12;28.63;101107.94;106011;1263;72099;-90
2023/09/11 11:43:40;;;;;;;5.80;5.20;;;;;;;32.01;28.60;101105.65;105681;1262;59847;-85
2023/09/11 11:46:07;;;;;;;4.70;3.90;;;;;;;31.98;29.07;101100.25;105837;1262;61237;-87
2023/09/11 11:48:34;;;;;;;4.30;3.60;;;;;;;31.96;29.09;101099.51;108157;1263;74541;-86
2023/09/11 11:51:01;;;;;;;3.60;3.30;;;;;;;31.68;28.54;101093.88;107493;1263;62398;-88
2023/09/11 11:53:30;;;;;;;4.30;4.00;;;;;;;31.37;28.66;101095.54;106556;1261;72563;-88
2023/09/11 11:55:57;;;;;;;5.70;3.40;;;;;;;31.21;29.03;101096.57;105827;1262;59839;-90
2023/09/11 11:58:25;;;;;;;5.30;4.30;;;;;;;31.10;29.42;101089.88;105222;1262;59675;-91
2023/09/11 12:01:00;;;;;;;4.00;3.50;;;;;;;30.91;29.70;101086.27;105823;1260;72131;-90
2023/09/11 12:03:29;;;;;;;4.00;3.70;;;;;;;30.69;29.98;101083.98;105967;1255;64071;-89
2023/09/11 12:05:57;;;;;;;3.20;3.00;;;;;;;30.45;30.22;101082.44;107173;1256;70573;-89
2023/09/11 12:08:24;;;;;;;4.00;3.60;;;;;;;30.18;30.38;101077.38;107350;1256;61002;-86
2023/09/11 12:10:51;;;;;;;6.60;4.10;;;;;;;29.95;30.62;101082.73;106468;1256;59666;-87
2023/09/11 12:13:22;;;;;;;5.10;3.70;;;;;;;29.68;31.51;101075.98;106161;1256;73023;-88
2023/09/11 12:16:01;;;;;;;3.80;3.50;;;;;;;29.38;31.97;101076.43;106558;1252;65497;-88
2023/09/11 12:18:29;;;;;;;5.50;4.10;;;;;;;29.11;31.97;101077.61;105940;1253;72777;-87
2023/09/11 12:21:07;;;;;;;4.40;3.70;;;;;;;28.91;32.59;101079.45;106020;1253;60217;-90
2023/09/11 12:23:34;;;;;;;5.20;3.90;;;;;;;28.72;33.07;101073.62;106172;1252;60279;-87
2023/09/11 12:26:02;;;;;;;4.50;4.10;;;;;;;28.52;33.23;101074.09;106267;1253;71432;-86
2023/09/11 12:28:30;;;;;;;9.60;3.60;;;;;;;28.33;33.63;101071.92;106743;1252;63720;-87
2023/09/11 12:30:57;;;;;;;4.60;3.70;;;;;;;28.13;33.79;101073.28;106111;1253;72991;-87
2023/09/11 12:33:25;;;;;;;5.00;4.00;;;;;;;27.95;33.99;101073.31;106038;1257;60809;-90
2023/09/11 12:35:53;;;;;;;4.50;4.10;;;;;;;27.73;34.56;101073.73;106165;1252;59789;-86
2023/09/11 12:38:21;;;;;;;4.40;4.00;;;;;;;27.53;35.17;101071.43;106008;1253;72963;-89
2023/09/11 12:40:51;;;;;;;4.10;3.70;;;;;;;27.35;35.47;101071.30;106016;1257;63078;-88
2023/09/11 12:43:18;;;;;;;3.70;3.40;;;;;;;27.13;35.15;101066.44;106053;1253;72737;-85
2023/09/11 12:45:45;;;;;;;6.60;3.60;;;;;;;26.88;35.58;101062.83;106089;1253;61050;-88
2023/09/11 12:48:14;;;;;;;5.90;3.80;;;;;;;26.68;36.86;101064.95;106222;1252;59741;-88
2023/09/11 12:50:44;;;;;;;4.20;3.70;;;;;;;26.50;37.79;101065.29;106007;1254;73106;-87
2023/09/11 12:53:11;;;;;;;4.20;3.70;;;;;;;26.37;39.06;101067.23;106077;1257;63678;-86
2023/09/11 12:55:38;;;;;;;4.40;3.90;;;;;;;26.24;39.47;101061.81;105997;1257;72668;-88
2023/09/11 12:58:05;;;;;;;4.60;3.40;;;;;;;26.08;40.09;101056.61;106020;1256;61198;-88
2023/09/11 13:00:33;;;;;;;4.30;3.60;;;;;;;25.94;40.38;101054.36;105993;1253;62104;-87
2023/09/11 13:03:08;;;;;;;7.00;4.00;;;;;;;25.81;40.97;101049.91;107950;1256;73113;-88
2023/09/11 13:05:37;;;;;;;5.70;3.90;;;;;;;25.70;41.18;101047.05;107154;1255;63337;-88
2023/09/11 13:08:04;;;;;;;5.20;3.70;;;;;;;25.60;40.86;101051.49;106075;1253;70747;-87
2023/09/11 13:10:31;;;;;;;6.70;4.30;;;;;;;25.50;41.42;101052.48;105943;1253;60171;-89
2023/09/11 13:12:58;;;;;;;4.40;4.00;;;;;;;25.41;41.45;101046.67;106163;1253;59997;-87
2023/09/11 13:15:25;;;;;;;4.30;3.70;;;;;;;25.30;41.58;101041.17;107120;1252;72348;-88
2023/09/11 13:17:51;;;;;;;5.80;3.70;;;;;;;25.18;41.80;101039.25;108149;1253;62282;-87
2023/09/11 13:20:19;;;;;;;4.40;3.70;;;;;;;25.06;41.83;101037.69;108266;1253;72772;-86
2023/09/11 13:22:46;;;;;;;8.70;4.20;;;;;;;24.94;42.12;101039.05;107963;1252;60457;-88
2023/09/11 13:25:12;;;;;;;4.30;3.60;;;;;;;24.83;42.56;101038.58;107647;1253;60594;-86
2023/09/11 13:27:40;;;;;;;7.10;5.60;;;;;;;24.70;42.52;101035.64;107060;1252;73984;-86
2023/09/11 13:30:08;;;;;;;7.20;3.80;;;;;;;24.60;43.50;101032.73;107047;1257;63306;-88
2023/09/11 13:32:40;;;;;;;4.10;3.80;;;;;;;24.49;43.44;101033.77;106535;1253;72439;-90
2023/09/11 13:35:20;;;;;;;6.90;4.00;;;;;;;24.38;44.13;101033.18;106689;1254;60471;-87
2023/09/11 13:37:55;;;;;;;3.90;3.50;;;;;;;24.25;44.48;101030.17;106333;1253;60565;-89
2023/09/11 13:40:34;;;;;;;3.80;3.50;;;;;;;24.15;45.25;101033.11;106526;1257;74021;-87
2023/09/11 13:43:01;;;;;;;3.90;3.50;;;;;;;24.03;46.60;101031.16;106183;1253;63237;-87
2023/09/11 13:45:29;;;;;;;4.10;3.70;;;;;;;23.94;46.65;101032.84;106243;1253;72712;-86
2023/09/11 13:47:56;;;;;;;4.60;4.20;;;;;;;23.87;46.92;101033.29;106317;1253;60441;-87
2023/09/11 13:50:24;;;;;;;4.50;3.90;;;;;;;23.77;47.72;101030.77;106726;1257;60589;-89
2023/09/11 13:52:51;;;;;;;8.60;4.10;;;;;;;23.68;48.66;101031.26;106480;1257;73770;-88
2023/09/11 13:55:18;;;;;;;5.40;4.00;;;;;;;23.59;48.16;101029.89;106496;1253;63991;-87
2023/09/11 13:57:45;;;;;;;5.90;3.40;;;;;;;23.50;47.77;101028.38;106093;1252;72858;-87
2023/09/11 14:00:12;;;;;;;4.40;4.00;;;;;;;23.42;45.72;101026.81;106173;1253;60433;-88
2023/09/11 14:02:39;;;;;;;6.80;4.50;;;;;;;23.34;45.18;101025.46;106028;1253;60560;-87
2023/09/11 14:05:07;;;;;;;3.50;3.20;;;;;;;23.28;47.61;101025.58;105940;1253;73848;-87
2023/09/11 14:07:34;;;;;;;5.50;4.30;;;;;;;23.21;49.11;101021.70;105878;1257;63978;-91
2023/09/11 14:10:01;;;;;;;4.70;4.30;;;;;;;23.14;50.36;101024.56;106123;1253;71025;-86
2023/09/11 14:12:29;;;;;;;7.00;3.90;;;;;;;23.08;51.64;101022.01;106375;1258;60505;-87
2023/09/11 14:14:56;;;;;;;4.60;4.10;;;;;;;23.03;51.70;101017.95;106125;1257;60458;-89
2023/09/11 14:17:31;;;;;;;6.10;5.20;;;;;;;22.98;53.48;101021.63;106071;1253;73950;-88
2023/09/11 14:20:00;;;;;;;6.40;4.20;;;;;;;22.91;54.35;101020.60;105743;1260;62802;-90
2023/09/11 14:22:27;;;;;;;5.50;5.00;;;;;;;22.87;54.50;101023.92;105915;1253;71534;-88
2023/09/11 14:24:53;;;;;;;7.60;4.70;;;;;;;22.80;55.21;101021.23;105931;1253;60540;-86
2023/09/11 14:27:20;;;;;;;4.20;3.90;;;;;;;22.71;55.74;101022.64;106429;1254;60579;-87
2023/09/11 14:29:48;;;;;;;4.00;3.70;;;;;;;22.63;56.69;101020.00;106239;1254;73748;-88
2023/09/11 14:32:16;;;;;;;5.50;4.20;;;;;;;22.54;58.01;101021.06;106875;1253;62938;-88
2023/09/11 14:34:46;;;;;;;4.10;3.70;;;;;;;22.46;57.93;101025.88;107556;1253;71865;-87
2023/09/11 14:37:13;;;;;;;5.40;4.80;;;;;;;22.37;59.00;101023.05;106430;1253;60557;-89
2023/09/11 14:39:49;;;;;;;5.20;4.40;;;;;;;22.29;61.49;101022.63;106122;1257;60418;-90
2023/09/11 14:42:17;;;;;;;5.40;4.10;;;;;;;22.22;63.56;101027.30;106401;1253;73873;-88
2023/09/11 14:44:48;;;;;;;5.10;4.50;;;;;;;22.14;65.13;101022.56;106983;1254;64227;-87
2023/09/11 14:47:15;;;;;;;4.90;4.40;;;;;;;22.05;64.03;101023.58;106199;1254;72034;-87
2023/09/11 14:49:42;;;;;;;6.00;4.20;;;;;;;21.98;64.59;101020.79;106675;1253;60470;-87
2023/09/11 14:52:09;;;;;;;7.30;4.90;;;;;;;21.90;65.36;101020.37;105946;1253;60391;-90
2023/09/11 14:54:36;;;;;;;11.00;6.70;;;;;;;21.81;65.17;101018.38;106061;1253;73109;-89
2023/09/11 14:57:21;;;;;;;8.20;6.20;;;;;;;21.74;67.29;101019.41;106588;1253;62487;-86
2023/09/11 14:59:48;;;;;;;15.10;9.90;;;;;;;21.68;69.08;101019.13;106879;1254;71491;-87
2023/09/11 15:02:15;;;;;;;14.80;8.40;;;;;;;21.61;70.00;101015.77;106736;1257;60333;-89
2023/09/11 15:04:44;;;;;;;10.30;7.10;;;;;;;21.54;70.18;101017.19;106152;1253;60394;-89
2023/09/11 15:07:26;;;;;;;7.20;5.90;;;;;;;21.47;70.49;101016.63;106348;1253;73867;-87
2023/09/11 15:09:56;;;;;;;5.30;4.50;;;;;;;21.41;71.62;101020.30;106869;1253;63891;-90
2023/09/11 15:12:24;;;;;;;6.80;6.00;;;;;;;21.35;72.53;101020.16;107059;1253;71279;-89
2023/09/11 15:14:52;;;;;;;6.10;5.50;;;;;;;21.29;72.87;101022.00;108437;1249;60544;-89
2023/09/11 15:17:27;;;;;;;9.30;6.90;;;;;;;21.24;73.94;101020.39;106719;1256;63005;-85
2023/09/11 15:19:57;;;;;;;9.00;6.60;;;;;;;21.18;76.60;101019.48;107140;1256;73930;-87
2023/09/11 15:22:24;;;;;;;12.40;7.20;;;;;;;21.13;79.62;101020.34;108675;1257;62707;-84
2023/09/11 15:24:56;;;;;;;13.60;7.70;;;;;;;21.08;83.56;101018.16;109238;1256;71454;-86
2023/09/11 15:27:24;;;;;;;11.90;7.60;;;;;;;21.03;84.91;101017.95;108530;1256;59051;-87
2023/09/11 15:29:52;;;;;;;10.70;7.20;;;;;;;20.98;85.57;101017.35;105932;1260;61239;-88
2023/09/11 15:32:20;;;;;;;9.30;7.40;;;;;;;20.94;86.33;101020.84;105769;1256;72625;-90
2023/09/11 15:34:53;;;;;;;13.30;8.10;;;;;;;20.89;87.07;101023.25;106524;1260;64207;-87
2023/09/11 15:37:24;;;;;;;10.40;8.10;;;;;;;20.84;87.84;101024.83;106770;1256;71251;-86
2023/09/11 15:39:51;;;;;;;17.30;11.30;;;;;;;20.78;88.86;101026.83;109055;1256;60448;-85
2023/09/11 15:42:18;;;;;;;14.50;10.20;;;;;;;20.71;90.28;101028.34;108590;1256;60454;-86
2023/09/11 15:44:47;;;;;;;17.00;13.90;;;;;;;20.62;91.94;101026.52;107018;1259;73547;-87
2023/09/11 15:47:16;;;;;;;22.90;18.90;;;;;;;20.57;92.58;101023.48;106027;1257;64115;-89
2023/09/11 15:49:44;;;;;;;23.10;16.60;;;;;;;20.50;92.86;101024.51;105842;1256;71219;-90
2023/09/11 15:52:11;;;;;;;26.80;15.80;;;;;;;20.42;93.15;101022.23;105960;1260;60438;-89
2023/09/11 15:54:38;;;;;;;26.70;16.50;;;;;;;20.34;93.74;101020.14;105705;1256;60485;-89
2023/09/11 15:57:05;;;;;;;29.90;18.60;;;;;;;20.25;94.41;101015.77;105846;1256;73041;-88
2023/09/11 15:59:36;;;;;;;26.90;16.90;;;;;;;20.18;95.28;101017.52;106219;1256;64053;-89
2023/09/11 16:02:04;;;;;;;28.50;16.50;;;;;;;20.10;96.17;101023.16;106179;1260;72710;-89
2023/09/11 16:04:40;;;;;;;28.60;17.10;;;;;;;19.99;97.33;101027.33;106476;1255;60442;-88
2023/09/11 16:07:09;;;;;;;22.60;16.40;;;;;;;19.91;98.23;101027.14;109233;1256;58641;-88
2023/09/11 16:09:37;;;;;;;29.10;17.30;;;;;;;19.82;99.41;101026.58;109149;1255;74077;-87
2023/09/11 16:12:04;;;;;;;32.80;15.20;;;;;;;19.73;99.94;101030.11;109152;1255;65467;-89
2023/09/11 16:14:31;;;;;;;40.00;13.30;;;;;;;19.64;100.00;101032.48;109157;1261;71440;-88
2023/09/11 16:17:00;;;;;;;20.80;11.10;;;;;;;19.55;100.00;101030.14;109246;1256;59780;-87
2023/09/11 16:19:27;;;;;;;25.20;11.30;;;;;;;19.45;100.00;101030.46;109366;1255;58902;-85
2023/09/11 16:21:55;;;;;;;21.10;11.30;;;;;;;19.35;100.00;101031.56;109308;1255;73338;-87
2023/09/11 16:24:22;;;;;;;20.50;9.80;;;;;;;19.25;100.00;101032.85;109417;1255;65203;-87
2023/09/11 16:26:51;;;;;;;13.80;9.60;;;;;;;19.16;100.00;101034.34;109383;1255;72413;-89
2023/09/11 16:29:19;;;;;;;18.00;9.20;;;;;;;19.07;100.00;101041.16;109149;1256;60418;-88
2023/09/11 16:34:26;;;;;;;17.90;10.10;;;;;;;18.92;100.00;101038.10;105807;1290;600738;-89
2023/09/11 16:36:55;;;;;;;18.10;9.70;;;;;;;18.81;100.00;101042.55;107235;1270;60902;-88
2023/09/11 16:39:22;;;;;;;19.00;8.70;;;;;;;18.74;100.00;101041.41;106613;1268;59299;-88
2023/09/11 16:41:49;;;;;;;20.80;8.60;;;;;;;18.67;100.00;101045.58;105342;1272;72168;-87
2023/09/11 16:44:16;;;;;;;15.70;8.00;;;;;;;18.60;100.00;101044.06;105660;1263;65122;-88
2023/09/11 16:46:43;;;;;;;21.50;9.20;;;;;;;18.53;100.00;101047.67;105741;1264;227749;-88
2023/09/11 16:49:10;;;;;;;23.70;9.80;;;;;;;18.46;100.00;101049.50;107629;1262;61965;-84
2023/09/11 16:51:37;;;;;;;26.30;11.60;;;;;;;18.40;100.00;101045.99;108238;1261;59183;-89
2023/09/11 16:54:04;;;;;;;19.40;10.90;;;;;;;18.33;100.00;101048.83;106574;1263;72255;-88
2023/09/11 16:56:31;;;;;;;21.70;10.70;;;;;;;18.27;100.00;101044.39;105532;1264;62684;-89
2023/09/11 16:58:58;;;;;;;24.90;10.40;;;;;;;18.21;100.00;101054.81;107352;1265;73006;-87
2023/09/11 17:01:25;;;;;;;31.00;11.70;;;;;;;18.14;100.00;101056.33;107747;1263;59710;-89
2023/09/11 17:03:52;;;;;;;26.90;13.20;;;;;;;18.05;100.00;101056.39;106183;1263;59604;-88
2023/09/11 17:06:19;;;;;;;18.80;11.40;;;;;;;17.96;100.00;101056.75;106219;1258;72958;-91
2023/09/11 17:08:50;;;;;;;25.70;12.70;;;;;;;17.88;100.00;101057.11;106059;1256;63849;-89
2023/09/11 17:11:17;;;;;;;27.30;13.30;;;;;;;17.80;100.00;101059.15;108405;1251;70865;-87
2023/09/11 17:13:44;;;;;;;34.50;15.90;;;;;;;17.71;100.00;101059.69;106998;1254;62001;-88
2023/09/11 17:16:11;;;;;;;29.50;12.80;;;;;;;17.61;100.00;101061.25;106526;1251;59748;-87
2023/09/11 17:18:38;;;;;;;40.80;14.50;;;;;;;17.53;100.00;101068.05;106569;1250;73014;-87
2023/09/11 17:21:06;;;;;;;43.30;15.90;;;;;;;17.45;100.00;101066.98;106252;1256;62928;-88
2023/09/11 17:23:34;;;;;;;42.90;16.50;;;;;;;17.36;100.00;101062.54;106244;1251;72865;-87
2023/09/11 17:26:02;;;;;;;44.70;16.70;;;;;;;17.29;100.00;101065.82;106791;1251;62002;-86
2023/09/11 17:28:32;;;;;;;43.60;16.60;;;;;;;17.21;100.00;101065.04;106721;1251;60105;-86
2023/09/11 17:30:59;;;;;;;36.40;16.90;;;;;;;17.11;100.00;101067.95;106591;1251;71606;-88
2023/09/11 17:33:29;;;;;;;41.50;22.30;;;;;;;17.00;100.00;101065.48;106968;1255;64215;-87
2023/09/11 17:35:56;;;;;;;42.80;23.40;;;;;;;16.89;100.00;101066.34;107195;1256;70519;-87
2023/09/11 17:38:24;;;;;;;33.90;19.40;;;;;;;16.80;100.00;101065.84;107062;1254;62275;-89
2023/09/11 17:40:51;;;;;;;35.00;17.90;;;;;;;16.72;100.00;101065.91;106398;1255;59653;-88
2023/09/11 17:43:19;;;;;;;33.20;16.50;;;;;;;16.64;100.00;101066.91;106151;1255;71447;-88
2023/09/11 17:45:49;;;;;;;36.60;15.90;;;;;;;16.56;100.00;101063.64;106123;1257;62769;-88
2023/09/11 17:48:16;;;;;;;30.70;18.10;;;;;;;16.50;100.00;101067.09;107848;1256;72954;-90
2023/09/11 17:50:51;;;;;;;33.40;17.90;;;;;;;16.42;100.00;101067.94;106471;1256;62103;-90
2023/09/11 17:53:21;;;;;;;37.20;16.90;;;;;;;16.33;100.00;101070.37;107355;1252;59606;-86
2023/09/11 17:55:49;;;;;;;28.80;18.10;;;;;;;16.27;100.00;101072.43;107131;1251;71806;-88
2023/09/11 17:58:18;;;;;;;35.10;16.50;;;;;;;16.20;100.00;101071.21;106733;1257;64058;-86
2023/09/11 18:00:47;;;;;;;34.00;17.10;;;;;;;16.10;100.00;101072.80;106295;1256;72092;-85
2023/09/11 18:03:14;;;;;;;38.30;17.90;;;;;;;16.02;100.00;101074.83;106418;1256;62315;-88
2023/09/11 18:05:41;;;;;;;30.10;16.90;;;;;;;15.94;100.00;101078.41;107120;1256;59560;-89
2023/09/11 18:08:09;;;;;;;36.00;16.10;;;;;;;15.86;100.00;101081.80;106835;1256;73613;-85
2023/09/11 18:10:43;;;;;;;38.10;17.60;;;;;;;15.81;100.00;101077.84;107758;1251;62651;-86
2023/09/11 18:13:19;;;;;;;42.50;16.80;;;;;;;15.74;100.00;101079.71;106963;1257;72863;-86
2023/09/11 18:15:53;;;;;;;35.30;18.20;;;;;;;15.67;100.00;101076.48;107828;1251;61883;-85
2023/09/11 18:18:22;;;;;;;47.40;27.80;;;;;;;15.63;100.00;101082.81;107332;1255;59646;-86
2023/09/11 18:20:49;;;;;;;47.00;24.20;;;;;;;15.57;100.00;101080.97;106596;1256;73064;-86
2023/09/11 18:23:15;;;;;;;45.20;22.20;;;;;;;15.52;100.00;101079.20;108276;1255;61776;-87
2023/09/11 18:25:42;;;;;;;44.40;22.10;;;;;;;15.49;100.00;101081.92;108555;1251;71703;-86
2023/09/11 18:28:10;;;;;;;39.80;22.60;;;;;;;15.44;100.00;101079.98;107238;1256;62182;-87
2023/09/11 18:30:39;;;;;;;43.90;23.50;;;;;;;15.39;100.00;101078.23;107499;1256;59599;-88
2023/09/11 18:33:07;;;;;;;41.80;21.50;;;;;;;15.33;100.00;101077.08;109088;1251;71211;-86
2023/09/11 18:35:34;;;;;;;34.50;19.50;;;;;;;15.27;100.00;101076.09;107761;1254;62920;-86
2023/09/11 18:38:01;;;;;;;35.60;20.70;;;;;;;15.22;100.00;101078.40;107185;1251;72043;-86
2023/09/11 18:40:29;;;;;;;28.50;17.10;;;;;;;15.16;100.00;101075.15;108655;1251;60817;-86
2023/09/11 18:42:56;;;;;;;45.30;19.30;;;;;;;15.09;100.00;101075.27;108488;1251;61517;-86
2023/09/11 18:45:26;;;;;;;31.40;18.70;;;;;;;15.05;100.00;101075.05;107450;1256;71316;-88
2023/09/11 18:47:54;;;;;;;36.00;18.00;;;;;;;15.01;100.00;101073.21;106229;1251;63922;-87
2023/09/11 18:50:21;;;;;;;39.00;18.90;;;;;;;14.98;100.00;101073.79;106207;1257;71811;-86
2023/09/11 18:52:48;;;;;;;38.80;19.60;;;;;;;14.94;100.00;101075.31;107378;1256;60447;-86
2023/09/11 18:55:15;;;;;;;33.80;18.70;;;;;;;14.89;100.00;101075.83;107121;1256;60202;-87
2023/09/11 18:57:42;;;;;;;32.90;17.80;;;;;;;14.85;100.00;101076.48;107576;1251;71670;-88
2023/09/11 19:00:10;;;;;;;36.20;19.80;;;;;;;14.80;100.00;101075.38;106818;1253;62820;-87
2023/09/11 19:02:41;;;;;;;33.20;16.60;;;;;;;14.77;100.00;101075.64;107374;1256;72346;-87
2023/09/11 19:05:15;;;;;;;37.40;17.50;;;;;;;14.72;100.00;101076.45;108075;1251;59889;-87
2023/09/11 19:07:42;;;;;;;36.00;15.90;;;;;;;14.68;100.00;101079.72;108366;1251;59209;-85
2023/09/11 19:10:11;;;;;;;39.90;17.90;;;;;;;14.65;100.00;101079.30;108261;1256;73005;-86
2023/09/11 19:12:40;;;;;;;22.80;15.90;;;;;;;14.62;100.00;101076.86;108311;1252;62719;-87
2023/09/11 19:15:08;;;;;;;34.40;18.70;;;;;;;14.58;100.00;101079.39;106403;1259;70660;-86
2023/09/11 19:17:35;;;;;;;30.30;18.30;;;;;;;14.56;100.00;101079.70;106271;1266;61375;-86
2023/09/11 19:20:02;;;;;;;27.00;17.90;;;;;;;14.54;100.00;101078.62;107550;1251;60494;-89
2023/09/11 19:22:33;;;;;;;31.00;17.50;;;;;;;14.52;100.00;101077.70;109645;1251;71545;-87
2023/09/11 19:25:03;;;;;;;33.30;19.30;;;;;;;14.50;100.00;101077.11;109015;1251;62681;-88
2023/09/11 19:27:33;;;;;;;27.00;17.20;;;;;;;14.48;100.00;101078.84;108313;1251;72623;-87
2023/09/11 19:30:00;;;;;;;34.90;18.60;;;;;;;14.45;100.00;101080.05;106944;1251;62123;-85
2023/09/11 19:32:28;;;;;;;36.70;18.90;;;;;;;14.43;100.00;101081.66;106265;1252;60044;-89
2023/09/11 19:34:55;;;;;;;33.10;18.30;;;;;;;14.40;100.00;101082.17;106183;1250;71716;-87
2023/09/11 19:37:23;;;;;;;28.70;17.10;;;;;;;14.37;100.00;101082.57;106084;1257;64760;-86
2023/09/11 19:39:50;;;;;;;24.50;16.40;;;;;;;14.34;100.00;101082.77;106064;1256;72719;-87
2023/09/11 19:42:18;;;;;;;39.50;19.60;;;;;;;14.29;100.00;101087.84;106052;1256;60801;-87
2023/09/11 19:44:44;;;;;;;32.00;18.30;;;;;;;14.23;100.00;101087.59;106104;1257;59689;-87
2023/09/11 19:47:12;;;;;;;30.80;18.70;;;;;;;14.21;100.00;101091.96;106111;1257;73069;-90
2023/09/11 19:49:40;;;;;;;28.40;19.10;;;;;;;14.14;100.00;101093.27;105954;1257;62864;-89
2023/09/11 19:52:07;;;;;;;41.80;18.60;;;;;;;14.08;100.00;101092.27;106103;1254;71954;-88
2023/09/11 19:54:36;;;;;;;31.50;19.60;;;;;;;14.02;100.00;101091.42;106162;1257;60370;-89
2023/09/11 19:59:05;;;;;;;35.00;17.90;;;;;;;13.95;100.00;101091.54;102825;1292;600922;-88
2023/09/11 20:01:32;;;;;;;30.80;19.50;;;;;;;13.90;100.00;101089.45;105113;1270;60854;-87
2023/09/11 20:04:04;;;;;;;32.40;19.40;;;;;;;13.86;100.00;101091.10;105478;1269;59290;-87
2023/09/11 20:06:32;;;;;;;30.00;20.00;;;;;;;13.81;100.00;101088.42;106403;1267;69950;-86
2023/09/11 20:08:59;;;;;;;37.10;19.70;;;;;;;13.77;100.00;101088.69;106320;1269;62488;-88
2023/09/11 20:11:29;;;;;;;34.70;20.10;;;;;;;13.75;100.00;101087.81;105964;1267;73622;-87
2023/09/11 20:13:57;;;;;;;34.60;20.50;;;;;;;13.72;100.00;101087.09;106562;1262;60942;-86
2023/09/11 20:16:24;;;;;;;37.50;22.80;;;;;;;13.71;100.00;101084.77;108005;1260;58928;-86
2023/09/11 20:18:52;;;;;;;34.00;22.30;;;;;;;13.69;100.00;101085.76;108332;1263;71030;-83
2023/09/11 20:21:19;;;;;;;38.30;21.60;;;;;;;13.66;100.00;101086.95;108155;1259;62352;-84
2023/09/11 20:23:49;;;;;;;29.70;19.40;;;;;;;13.64;100.00;101087.46;107195;1260;71483;-84
2023/09/11 20:26:17;;;;;;;33.10;18.90;;;;;;;13.61;100.00;101085.73;107552;1261;60433;-85
2023/09/11 20:28:44;;;;;;;26.70;17.70;;;;;;;13.58;100.00;101086.77;107546;1263;59564;-84
2023/09/11 20:31:15;;;;;;;33.60;18.40;;;;;;;13.55;100.00;101086.47;106329;1262;72422;-87
2023/09/11 20:33:43;;;;;;;30.60;19.00;;;;;;;13.54;100.00;101088.48;105513;1272;62793;-87
2023/09/11 20:36:16;;;;;;;34.70;18.00;;;;;;;13.51;100.00;101086.35;105535;1263;75156;-87
2023/09/11 20:38:44;;;;;;;33.70;19.70;;;;;;;13.48;100.00;101085.51;105551;1265;59729;-86
2023/09/11 20:41:11;;;;;;;29.30;18.00;;;;;;;13.44;100.00;101083.81;105592;1263;59642;-87
2023/09/11 20:43:41;;;;;;;31.40;18.40;;;;;;;13.41;100.00;101083.67;105546;1257;73091;-87
2023/09/11 20:46:12;;;;;;;34.30;19.00;;;;;;;13.37;100.00;101082.15;105440;1258;62986;-87
2023/09/11 20:48:40;;;;;;;28.90;16.90;;;;;;;13.33;100.00;101081.91;105491;1263;71480;-87
2023/09/11 20:51:09;;;;;;;39.40;19.60;;;;;;;13.31;100.00;101081.52;105477;1263;63496;-87
2023/09/11 20:53:37;;;;;;;31.70;18.30;;;;;;;13.29;100.00;101082.02;105623;1263;60086;-87
2023/09/11 20:56:06;;;;;;;30.80;20.30;;;;;;;13.26;100.00;101083.16;105535;1260;72941;-87
2023/09/11 20:58:34;;;;;;;28.70;18.30;;;;;;;13.25;100.00;101081.65;105633;1260;61482;-87
2023/09/11 21:01:03;;;;;;;33.40;19.80;;;;;;;13.24;100.00;101080.14;105933;1256;72478;-87
2023/09/11 21:03:31;;;;;;;26.60;19.10;;;;;;;13.22;100.00;101079.58;106125;1257;61991;-87
2023/09/11 21:05:59;;;;;;;30.20;19.70;;;;;;;13.19;100.00;101078.19;106085;1258;59675;-85
2023/09/11 21:08:27;;;;;;;27.20;19.70;;;;;;;13.16;100.00;101080.34;105955;1256;73051;-86
2023/09/11 21:10:55;;;;;;;33.80;19.50;;;;;;;13.11;100.00;101079.62;106074;1257;63176;-87
2023/09/11 21:13:22;;;;;;;32.00;18.80;;;;;;;13.06;100.00;101083.72;106261;1257;72815;-87
2023/09/11 21:15:50;;;;;;;30.20;16.80;;;;;;;13.02;100.00;101080.30;106185;1256;61766;-86
2023/09/11 21:18:17;;;;;;;24.10;18.00;;;;;;;12.99;100.00;101082.94;106148;1258;59920;-86
2023/09/11 21:20:45;;;;;;;21.80;18.00;;;;;;;12.97;100.00;101082.41;106180;1251;75187;-86
2023/09/11 21:23:13;;;;;;;30.30;18.10;;;;;;;12.94;100.00;101084.17;106177;1251;65616;-86
2023/09/11 21:25:40;;;;;;;31.50;18.00;;;;;;;12.91;100.00;101082.60;106229;1256;72866;-87
2023/09/11 21:28:08;;;;;;;26.00;18.80;;;;;;;12.87;100.00;101084.77;106257;1256;60508;-85
2023/09/11 21:30:35;;;;;;;28.10;21.80;;;;;;;12.83;100.00;101082.00;106459;1255;59520;-87
2023/09/11 21:33:03;;;;;;;34.40;23.30;;;;;;;12.80;100.00;101087.30;106398;1251;71596;-86
2023/09/11 21:35:30;;;;;;;30.80;22.40;;;;;;;12.78;100.00;101083.59;106353;1257;63532;-87
2023/09/11 21:38:00;;;;;;;26.80;19.50;;;;;;;12.76;100.00;101079.67;106795;1250;71151;-85
2023/09/11 21:40:27;;;;;;;28.60;18.90;;;;;;;12.76;100.00;101081.60;106112;1254;60395;-85
2023/09/11 21:42:55;;;;;;;34.20;18.20;;;;;;;12.74;100.00;101076.95;106099;1257;60442;-88
2023/09/11 21:45:22;;;;;;;28.80;17.40;;;;;;;12.73;100.00;101080.02;106110;1256;71961;-85
2023/09/11 21:47:53;;;;;;;26.50;19.30;;;;;;;12.72;100.00;101079.77;106139;1257;64115;-87
2023/09/11 21:50:20;;;;;;;25.00;18.10;;;;;;;12.71;100.00;101081.05;105954;1257;72861;-85
2023/09/11 21:52:48;;;;;;;24.20;17.90;;;;;;;12.70;100.00;101085.12;106060;1257;60876;-88
2023/09/11 21:55:15;;;;;;;26.50;17.20;;;;;;;12.70;100.00;101085.68;106219;1256;59649;-87
2023/09/11 21:57:43;;;;;;;25.50;17.20;;;;;;;12.68;100.00;101082.44;106262;1252;73049;-86
2023/09/11 22:00:12;;;;;;;26.10;19.70;;;;;;;12.67;100.00;101081.80;106290;1256;61444;-87
2023/09/11 22:02:39;;;;;;;29.90;19.70;;;;;;;12.63;100.00;101084.15;106294;1250;74333;-87
2023/09/11 22:05:07;;;;;;;30.30;19.20;;;;;;;12.59;100.00;101080.73;106182;1252;60641;-86
2023/09/11 22:07:35;;;;;;;31.70;19.80;;;;;;;12.55;100.00;101083.38;106255;1251;59964;-87
2023/09/11 22:10:04;;;;;;;27.30;18.30;;;;;;;12.52;100.00;101081.65;106246;1251;73048;-85
2023/09/11 22:12:31;;;;;;;28.50;19.20;;;;;;;12.50;100.00;101084.39;109680;1250;62729;-88